createdAt,value
2018-09-18T00:04:36.552Z,15.30
2018-09-18T00:14:39.792Z,15.40
2018-09-18T00:24:43.072Z,15.10
2018-09-18T00:34:46.322Z,15.20
2018-09-18T00:44:49.724Z,15.30
2018-09-18T00:54:52.976Z,14.90
2018-09-18T01:04:56.224Z,14.70
2018-09-18T01:14:59.460Z,14.70
2018-09-18T01:25:02.717Z,14.90
2018-09-18T01:35:05.968Z,14.50
2018-09-18T01:45:09.244Z,14.20
2018-09-18T01:55:12.496Z,14.10
2018-09-18T02:05:15.760Z,14.00
2018-09-18T02:15:19.012Z,14.00
2018-09-18T02:25:22.328Z,13.80
2018-09-18T02:35:25.568Z,13.60
2018-09-18T02:45:28.913Z,13.50
2018-09-18T02:55:32.192Z,13.80
2018-09-18T03:05:35.432Z,13.50
2018-09-18T03:15:38.720Z,13.60
2018-09-18T03:25:41.977Z,13.50
2018-09-18T03:35:45.619Z,13.40
2018-09-18T03:45:48.784Z,13.30
2018-09-18T03:55:52.040Z,13.30
2018-09-18T04:05:55.269Z,13.30
2018-09-18T04:15:58.720Z,13.20
2018-09-18T04:26:02.072Z,13.00
2018-09-18T04:36:05.308Z,12.90
2018-09-18T04:46:08.757Z,13.00
2018-09-18T04:56:12.035Z,12.60
2018-09-18T05:06:15.283Z,12.80
2018-09-18T05:16:18.565Z,12.70
2018-09-18T05:26:21.853Z,12.80
2018-09-18T05:36:25.100Z,13.00
2018-09-18T05:46:28.340Z,13.30
2018-09-18T05:56:31.652Z,13.40
2018-09-18T06:06:34.981Z,13.40
2018-09-18T06:16:38.256Z,13.70
2018-09-18T06:26:41.512Z,14.10
2018-09-18T06:36:44.792Z,14.50
2018-09-18T06:46:48.077Z,14.50
2018-09-18T06:56:51.376Z,14.80
2018-09-18T07:06:54.612Z,14.50
2018-09-18T07:16:57.898Z,14.70
2018-09-18T07:27:01.260Z,15.10
2018-09-18T07:37:04.596Z,15.70
2018-09-18T07:47:08.741Z,16.20
2018-09-18T07:57:12.015Z,16.90
2018-09-18T08:07:15.361Z,17.20
2018-09-18T08:17:18.752Z,17.60
2018-09-18T08:27:22.626Z,18.00
2018-09-18T08:37:25.856Z,18.30
2018-09-18T08:47:29.974Z,18.80
2018-09-18T08:57:33.470Z,19.10
2018-09-18T09:07:36.813Z,19.50
2018-09-18T09:17:40.208Z,20.00
2018-09-18T09:27:43.581Z,20.30
2018-09-18T09:37:46.941Z,20.60
2018-09-18T09:47:50.265Z,21.00
2018-09-18T09:57:53.605Z,21.50
2018-09-18T10:07:56.925Z,21.80
2018-09-18T10:18:01.729Z,22.20
2018-09-18T10:28:05.864Z,22.50
2018-09-18T10:38:09.457Z,22.90
2018-09-18T10:48:13.044Z,23.30
2018-09-18T10:58:16.982Z,23.60
2018-09-18T11:08:20.478Z,24.00
2018-09-18T11:18:24.064Z,24.20
2018-09-18T11:28:32.324Z,24.60
2018-09-18T11:38:35.577Z,24.90
2018-09-18T11:48:38.849Z,25.40
2018-09-18T11:58:42.284Z,26.00
2018-09-18T12:08:45.666Z,26.10
2018-09-18T12:18:48.989Z,26.90
2018-09-18T12:28:52.309Z,27.30
2018-09-18T12:38:55.664Z,27.60
2018-09-18T12:48:59.026Z,27.90
2018-09-18T12:59:02.326Z,27.90
2018-09-18T13:09:08.077Z,28.00
2018-09-18T13:19:11.604Z,28.00
2018-09-18T13:29:14.905Z,27.90
2018-09-18T13:39:18.202Z,27.90
2018-09-18T13:49:21.556Z,28.10
2018-09-18T13:59:24.825Z,28.20
2018-09-18T14:09:28.149Z,28.20
2018-09-18T14:19:31.584Z,28.40
2018-09-18T14:29:34.916Z,28.80
2018-09-18T14:39:38.250Z,28.70
2018-09-18T14:49:41.581Z,28.60
2018-09-18T14:59:45.461Z,28.60
2018-09-18T15:09:48.958Z,30.10
2018-09-18T15:19:52.331Z,29.40
2018-09-18T15:29:56.164Z,28.60
2018-09-18T15:39:59.825Z,28.30
2018-09-18T15:50:04.192Z,28.10
2018-09-18T16:00:07.514Z,28.10
2018-09-18T16:10:10.952Z,27.70
2018-09-18T16:20:14.486Z,27.60
2018-09-18T16:30:17.810Z,27.40
2018-09-18T16:40:21.994Z,27.20
2018-09-18T16:50:27.283Z,27.00
2018-09-18T17:00:30.649Z,27.00
2018-09-18T17:10:33.974Z,26.80
2018-09-18T17:20:37.229Z,26.60
2018-09-18T17:30:40.564Z,26.50
2018-09-18T17:40:43.853Z,26.20
2018-09-18T17:50:47.810Z,26.00
2018-09-18T18:00:52.058Z,25.60
2018-09-18T18:10:55.416Z,25.30
2018-09-18T18:20:58.724Z,25.00
2018-09-18T18:31:02.080Z,24.60
2018-09-18T18:41:05.410Z,24.30
2018-09-18T18:51:08.593Z,24.10
2018-09-18T19:01:11.909Z,23.90
2018-09-18T19:11:15.262Z,23.70
2018-09-18T19:21:18.605Z,23.50
2018-09-18T19:31:22.050Z,23.10
2018-09-18T19:41:25.340Z,23.00
2018-09-18T19:51:28.801Z,22.80
2018-09-18T20:01:32.111Z,22.60
2018-09-18T20:11:35.359Z,22.30
2018-09-18T20:21:38.681Z,22.30
2018-09-18T20:31:41.956Z,21.90
2018-09-18T20:41:45.236Z,21.90
2018-09-18T20:51:48.449Z,21.70
2018-09-18T21:01:51.902Z,21.50
2018-09-18T21:11:55.679Z,21.40
2018-09-18T21:21:58.976Z,21.30
2018-09-18T21:32:03.382Z,21.20
2018-09-18T21:42:08.025Z,21.00
2018-09-18T21:52:11.320Z,20.90
2018-09-18T22:02:14.658Z,20.80
2018-09-18T22:12:17.966Z,20.80
2018-09-18T22:22:21.296Z,20.70
2018-09-18T22:32:24.553Z,20.60
2018-09-18T22:42:27.835Z,20.40
2018-09-18T22:52:31.108Z,20.40
2018-09-18T23:02:34.396Z,20.30
2018-09-18T23:12:37.652Z,20.20
2018-09-18T23:22:41.009Z,20.00
2018-09-18T23:32:44.276Z,20.10
2018-09-18T23:42:47.529Z,20.00
2018-09-18T23:52:50.830Z,20.00
